createdAt,value
2017-09-09T00:00:11.688Z,959.82
2017-09-09T00:01:11.652Z,959.80
2017-09-09T00:02:11.701Z,959.80
2017-09-09T00:03:11.750Z,959.79
2017-09-09T00:04:11.800Z,959.76
2017-09-09T00:05:11.919Z,959.71
2017-09-09T00:06:11.964Z,959.73
2017-09-09T00:07:11.946Z,959.73
2017-09-09T00:08:11.996Z,959.69
2017-09-09T00:09:12.042Z,959.66
2017-09-09T00:10:12.094Z,959.68
2017-09-09T00:11:12.207Z,959.61
2017-09-09T00:12:12.192Z,959.59
2017-09-09T00:13:12.243Z,959.57
2017-09-09T00:14:12.291Z,959.52
2017-09-09T00:15:12.339Z,959.52
2017-09-09T00:16:12.456Z,959.55
2017-09-09T00:17:12.434Z,959.50
2017-09-09T00:18:12.487Z,959.48
2017-09-09T00:19:12.535Z,959.45
2017-09-09T00:20:12.584Z,959.45
2017-09-09T00:21:12.697Z,959.47
2017-09-09T00:22:12.680Z,959.40
2017-09-09T00:23:12.735Z,959.38
2017-09-09T00:24:12.780Z,959.35
2017-09-09T00:25:12.833Z,959.30
2017-09-09T00:26:12.961Z,959.30
2017-09-09T00:27:12.927Z,959.28
2017-09-09T00:28:12.975Z,959.22
2017-09-09T00:29:13.027Z,959.21
2017-09-09T00:30:13.073Z,959.17
2017-09-09T00:31:13.191Z,959.18
2017-09-09T00:32:13.171Z,959.16
2017-09-09T00:33:13.221Z,959.17
2017-09-09T00:34:13.269Z,959.15
2017-09-09T00:35:13.321Z,959.16
2017-09-09T00:36:13.428Z,959.17
2017-09-09T00:37:13.483Z,959.15
2017-09-09T00:38:13.468Z,959.13
2017-09-09T00:39:13.516Z,959.14
2017-09-09T00:40:13.565Z,959.10
2017-09-09T00:41:13.679Z,959.05
2017-09-09T00:42:13.665Z,959.09
2017-09-09T00:43:13.709Z,959.08
2017-09-09T00:44:13.757Z,959.08
2017-09-09T00:45:13.810Z,959.06
2017-09-09T00:46:13.919Z,958.98
2017-09-09T00:47:13.968Z,958.98
2017-09-09T00:48:13.954Z,959.01
2017-09-09T00:49:14.004Z,958.98
2017-09-09T00:50:14.055Z,958.98
2017-09-09T00:51:14.101Z,959.00
2017-09-09T00:52:14.214Z,959.00
2017-09-09T00:53:14.199Z,958.99
2017-09-09T00:54:14.249Z,959.02
2017-09-09T00:55:14.297Z,959.03
2017-09-09T00:56:14.347Z,959.06
2017-09-09T00:57:14.460Z,959.03
2017-09-09T00:58:14.442Z,959.05
2017-09-09T00:59:14.492Z,959.03
2017-09-09T01:00:14.546Z,959.04
2017-09-09T01:01:14.589Z,959.04
2017-09-09T01:02:14.703Z,959.02
2017-09-09T01:03:14.688Z,959.02
2017-09-09T01:04:14.739Z,959.01
2017-09-09T01:05:14.786Z,959.00
2017-09-09T01:06:14.838Z,958.95
2017-09-09T01:07:14.966Z,958.98
2017-09-09T01:08:14.935Z,958.95
2017-09-09T01:09:14.981Z,958.89
2017-09-09T01:10:15.028Z,958.86
2017-09-09T01:11:15.080Z,958.81
2017-09-09T01:12:15.190Z,958.78
2017-09-09T01:13:15.239Z,958.73
2017-09-09T01:14:15.225Z,958.72
2017-09-09T01:15:15.274Z,958.69
2017-09-09T01:16:15.323Z,958.69
2017-09-09T01:17:15.373Z,958.70
2017-09-09T01:18:15.505Z,958.70
2017-09-09T01:19:15.471Z,958.66
2017-09-09T01:20:15.520Z,958.61
2017-09-09T01:21:15.566Z,958.59
2017-09-09T01:22:15.615Z,958.57
2017-09-09T01:23:15.732Z,958.57
2017-09-09T01:24:15.714Z,958.61
2017-09-09T01:25:15.762Z,958.57
2017-09-09T01:26:15.811Z,958.54
2017-09-09T01:27:15.863Z,958.53
2017-09-09T01:28:15.992Z,958.53
2017-09-09T01:29:15.956Z,958.51
2017-09-09T01:30:16.008Z,958.46
2017-09-09T01:31:16.054Z,958.42
2017-09-09T01:32:16.104Z,958.42
2017-09-09T01:33:16.235Z,958.39
2017-09-09T01:34:16.201Z,958.32
2017-09-09T01:35:16.251Z,958.30
2017-09-09T01:36:16.299Z,958.29
2017-09-09T01:37:16.346Z,958.23
2017-09-09T01:38:16.480Z,958.21
2017-09-09T01:39:16.445Z,958.21
2017-09-09T01:40:16.493Z,958.19
2017-09-09T01:41:16.542Z,958.25
2017-09-09T01:42:16.592Z,958.25
2017-09-09T01:43:16.702Z,958.23
2017-09-09T01:44:16.753Z,958.26
2017-09-09T01:45:16.736Z,958.23
2017-09-09T01:46:16.788Z,958.27
2017-09-09T01:47:16.837Z,958.22
2017-09-09T01:48:16.883Z,958.21
2017-09-09T01:49:16.999Z,958.19
2017-09-09T01:50:16.982Z,958.13
2017-09-09T01:51:17.033Z,958.14
2017-09-09T01:52:17.095Z,958.14
2017-09-09T01:53:17.129Z,958.08
2017-09-09T01:54:17.247Z,958.09
2017-09-09T01:55:17.225Z,958.05
2017-09-09T01:56:17.280Z,958.00
2017-09-09T01:57:17.324Z,957.97
2017-09-09T01:58:17.377Z,958.00
2017-09-09T01:59:17.488Z,957.98
2017-09-09T02:00:17.470Z,957.96
2017-09-09T02:01:17.516Z,957.93
2017-09-09T02:02:17.566Z,957.93
2017-09-09T02:03:17.618Z,957.91
2017-09-09T02:04:17.728Z,957.89
2017-09-09T02:05:17.713Z,957.84
2017-09-09T02:06:17.759Z,957.87
2017-09-09T02:07:17.809Z,957.87
2017-09-09T02:08:18.377Z,957.88
2017-09-09T02:09:17.973Z,957.86
2017-09-09T02:10:17.955Z,957.83
2017-09-09T02:11:18.021Z,957.77
2017-09-09T02:12:18.054Z,957.71
2017-09-09T02:13:18.100Z,957.65
2017-09-09T02:14:18.232Z,957.59
2017-09-09T02:15:18.199Z,957.56
2017-09-09T02:16:18.248Z,957.58
2017-09-09T02:17:18.345Z,957.54
2017-09-09T02:18:18.343Z,957.54
2017-09-09T02:19:18.462Z,957.53
2017-09-09T02:20:20.887Z,957.59
2017-09-09T02:21:18.493Z,957.57
2017-09-09T02:22:18.539Z,957.60
2017-09-09T02:23:18.586Z,957.63
2017-09-09T02:24:18.701Z,957.54
2017-09-09T02:25:18.769Z,957.54
2017-09-09T02:26:18.734Z,957.56
2017-09-09T02:27:18.782Z,957.53
2017-09-09T02:28:18.832Z,957.52
2017-09-09T02:29:18.877Z,957.56
2017-09-09T02:30:18.992Z,957.51
2017-09-09T02:31:19.040Z,957.51
2017-09-09T02:32:19.032Z,957.47
2017-09-09T02:33:19.073Z,957.44
2017-09-09T02:34:19.123Z,957.43
2017-09-09T02:35:19.175Z,957.34
2017-09-09T02:36:19.286Z,957.35
2017-09-09T02:37:19.268Z,957.37
2017-09-09T02:38:19.317Z,957.40
2017-09-09T02:39:19.368Z,957.40
2017-09-09T02:40:19.415Z,957.35
2017-09-09T02:41:19.530Z,957.35
2017-09-09T02:42:19.511Z,957.32
2017-09-09T02:43:19.561Z,957.26
2017-09-09T02:44:19.610Z,957.21
2017-09-09T02:45:19.656Z,957.21
2017-09-09T02:46:19.768Z,957.15
2017-09-09T02:47:19.757Z,957.11
2017-09-09T02:48:19.803Z,957.15
2017-09-09T02:49:19.849Z,957.15
2017-09-09T02:50:19.935Z,957.12
2017-09-09T02:51:20.014Z,957.11
2017-09-09T02:52:19.997Z,957.10
2017-09-09T02:53:20.046Z,957.09
2017-09-09T02:54:20.098Z,957.11
2017-09-09T02:55:20.141Z,957.08
2017-09-09T02:56:20.256Z,957.05
2017-09-09T02:57:20.240Z,957.02
2017-09-09T02:58:20.289Z,956.99
2017-09-09T02:59:20.335Z,956.96
2017-09-09T03:00:20.386Z,956.93
2017-09-09T03:01:20.515Z,957.00
2017-09-09T03:02:20.483Z,957.06
2017-09-09T03:03:20.538Z,957.10
2017-09-09T03:04:20.578Z,957.13
2017-09-09T03:05:20.624Z,957.17
2017-09-09T03:06:20.766Z,957.17
2017-09-09T03:07:20.725Z,957.17
2017-09-09T03:08:20.772Z,957.18
2017-09-09T03:09:20.818Z,957.22
2017-09-09T03:10:20.870Z,957.22
2017-09-09T03:11:20.985Z,957.25
2017-09-09T03:12:20.968Z,957.22
2017-09-09T03:13:21.015Z,957.21
2017-09-09T03:14:21.063Z,957.15
2017-09-09T03:15:21.112Z,957.17
2017-09-09T03:16:21.244Z,957.17
2017-09-09T03:17:21.211Z,957.16
2017-09-09T03:18:21.260Z,957.17
2017-09-09T03:19:21.306Z,957.09
2017-09-09T03:20:21.355Z,957.07
2017-09-09T03:21:21.484Z,957.05
2017-09-09T03:22:21.454Z,957.05
2017-09-09T03:23:21.503Z,957.10
2017-09-09T03:24:21.549Z,957.13
2017-09-09T03:25:21.596Z,957.14
2017-09-09T03:26:21.727Z,957.13
2017-09-09T03:27:21.693Z,957.12
2017-09-09T03:28:21.744Z,957.11
2017-09-09T03:29:21.790Z,957.07
2017-09-09T03:30:21.839Z,957.06
2017-09-09T03:31:21.951Z,957.05
2017-09-09T03:32:21.998Z,957.04
2017-09-09T03:33:21.986Z,957.01
2017-09-09T03:34:22.033Z,956.98
2017-09-09T03:35:22.082Z,956.92
2017-09-09T03:36:22.131Z,956.91
2017-09-09T03:37:22.243Z,956.89
2017-09-09T03:38:22.227Z,956.88
2017-09-09T03:39:22.281Z,956.87
2017-09-09T03:40:22.330Z,956.89
2017-09-09T03:41:22.371Z,956.91
2017-09-09T03:42:22.483Z,956.93
2017-09-09T03:43:22.474Z,956.91
2017-09-09T03:44:22.521Z,956.91
2017-09-09T03:45:22.564Z,956.88
2017-09-09T03:46:22.613Z,956.85
2017-09-09T03:47:22.726Z,956.88
2017-09-09T03:48:22.712Z,956.83
2017-09-09T03:49:22.764Z,956.83
2017-09-09T03:50:22.808Z,956.81
2017-09-09T03:51:22.859Z,956.81
2017-09-09T03:52:22.967Z,956.78
2017-09-09T03:53:22.952Z,956.75
2017-09-09T03:54:23.001Z,956.73
2017-09-09T03:55:23.050Z,956.68
2017-09-09T03:56:23.099Z,956.71
2017-09-09T03:57:23.210Z,956.77
2017-09-09T03:58:23.194Z,956.74
2017-09-09T03:59:23.244Z,956.78
2017-09-09T04:00:23.290Z,956.80
2017-09-09T04:01:23.337Z,956.80
2017-09-09T04:02:23.471Z,956.77
2017-09-09T04:03:23.435Z,956.79
2017-09-09T04:04:23.484Z,956.78
2017-09-09T04:05:23.534Z,956.78
2017-09-09T04:06:23.577Z,956.78
2017-09-09T04:07:23.693Z,956.82
2017-09-09T04:08:23.741Z,956.78
2017-09-09T04:09:23.725Z,956.78
2017-09-09T04:10:23.773Z,956.71
2017-09-09T04:11:23.823Z,956.72
2017-09-09T04:12:23.872Z,956.73
2017-09-09T04:13:24.003Z,956.74
2017-09-09T04:14:23.969Z,956.75
2017-09-09T04:15:24.019Z,956.73
2017-09-09T04:16:24.063Z,956.79
2017-09-09T04:17:24.109Z,956.80
2017-09-09T04:18:24.246Z,956.83
2017-09-09T04:19:24.208Z,956.79
2017-09-09T04:20:24.256Z,956.82
2017-09-09T04:21:24.303Z,956.81
2017-09-09T04:22:24.353Z,956.79
2017-09-09T04:23:24.485Z,956.78
2017-09-09T04:24:24.448Z,956.83
2017-09-09T04:25:24.502Z,956.92
2017-09-09T04:26:24.541Z,956.92
2017-09-09T04:27:24.592Z,956.92
2017-09-09T04:28:24.705Z,956.95
2017-09-09T04:29:24.753Z,956.93
2017-09-09T04:30:24.739Z,956.94
2017-09-09T04:31:24.786Z,956.97
2017-09-09T04:32:24.835Z,956.96
2017-09-09T04:33:24.881Z,956.98
2017-09-09T04:34:24.994Z,957.02
2017-09-09T04:35:24.983Z,957.01
2017-09-09T04:36:25.026Z,957.04
2017-09-09T04:37:25.078Z,957.06
2017-09-09T04:38:25.130Z,957.08
2017-09-09T04:39:25.240Z,957.09
2017-09-09T04:40:25.221Z,957.11
2017-09-09T04:41:25.266Z,957.13
2017-09-09T04:42:25.315Z,957.12
2017-09-09T04:43:25.365Z,957.10
2017-09-09T04:44:25.477Z,957.10
2017-09-09T04:45:25.483Z,957.12
2017-09-09T04:46:25.510Z,957.13
2017-09-09T04:47:25.558Z,957.11
2017-09-09T04:48:25.607Z,957.09
2017-09-09T04:49:25.717Z,957.08
2017-09-09T04:50:25.704Z,957.10
2017-09-09T04:51:25.749Z,957.14
2017-09-09T04:52:25.798Z,957.12
2017-09-09T04:53:25.847Z,957.17
2017-09-09T04:54:25.960Z,957.20
2017-09-09T04:55:25.944Z,957.22
2017-09-09T04:56:25.992Z,957.26
2017-09-09T04:57:26.039Z,957.32
2017-09-09T04:58:26.087Z,957.31
2017-09-09T04:59:26.219Z,957.31
2017-09-09T05:00:26.184Z,957.30
2017-09-09T05:01:26.235Z,957.29
2017-09-09T05:02:26.282Z,957.27
2017-09-09T05:03:26.331Z,957.30
2017-09-09T05:04:26.461Z,957.31
2017-09-09T05:05:26.426Z,957.37
2017-09-09T05:06:26.475Z,957.41
2017-09-09T05:07:26.521Z,957.38
2017-09-09T05:08:26.571Z,957.38
2017-09-09T05:09:26.689Z,957.40
2017-09-09T05:10:26.734Z,957.41
2017-09-09T05:11:26.718Z,957.36
2017-09-09T05:12:26.764Z,957.43
2017-09-09T05:13:26.810Z,957.48
2017-09-09T05:14:26.860Z,957.50
2017-09-09T05:15:26.976Z,957.56
2017-09-09T05:16:26.959Z,957.56
2017-09-09T05:17:27.004Z,957.57
2017-09-09T05:18:27.054Z,957.57
2017-09-09T05:19:27.103Z,957.49
2017-09-09T05:20:27.234Z,957.48
2017-09-09T05:21:27.199Z,957.51
2017-09-09T05:22:27.250Z,957.52
2017-09-09T05:23:27.294Z,957.54
2017-09-09T05:24:27.343Z,957.57
2017-09-09T05:25:27.477Z,957.60
2017-09-09T05:26:27.441Z,957.60
2017-09-09T05:27:27.490Z,957.56
2017-09-09T05:28:27.542Z,957.55
2017-09-09T05:29:27.583Z,957.55
2017-09-09T05:30:27.718Z,957.54
2017-09-09T05:31:27.681Z,957.60
2017-09-09T05:32:27.730Z,957.54
2017-09-09T05:33:27.778Z,957.59
2017-09-09T05:34:27.826Z,957.54
2017-09-09T05:35:27.942Z,957.53
2017-09-09T05:36:27.925Z,957.52
2017-09-09T05:37:27.971Z,957.50
2017-09-09T05:38:28.018Z,957.51
2017-09-09T05:39:28.069Z,957.53
2017-09-09T05:40:28.180Z,957.56
2017-09-09T05:41:28.165Z,957.60
2017-09-09T05:42:28.213Z,957.59
2017-09-09T05:43:28.263Z,957.52
2017-09-09T05:44:28.312Z,957.48
2017-09-09T05:45:28.443Z,957.50
2017-09-09T05:46:28.408Z,957.47
2017-09-09T05:47:28.459Z,957.46
2017-09-09T05:48:28.506Z,957.42
2017-09-09T05:49:28.555Z,957.42
2017-09-09T05:50:28.683Z,957.42
2017-09-09T05:51:28.653Z,957.46
2017-09-09T05:52:28.699Z,957.45
2017-09-09T05:53:28.748Z,957.44
2017-09-09T05:54:28.795Z,957.44
2017-09-09T05:55:28.910Z,957.41
2017-09-09T05:56:28.894Z,957.36
2017-09-09T05:57:28.940Z,957.40
2017-09-09T05:58:28.989Z,957.38
2017-09-09T05:59:29.037Z,957.42
2017-09-09T06:00:29.170Z,957.45
2017-09-09T06:01:29.136Z,957.43
2017-09-09T06:02:29.185Z,957.46
2017-09-09T06:03:29.234Z,957.42
2017-09-09T06:04:29.284Z,957.45
2017-09-09T06:05:29.394Z,957.51
2017-09-09T06:06:29.446Z,957.49
2017-09-09T06:07:29.428Z,957.47
2017-09-09T06:08:29.477Z,957.48
2017-09-09T06:09:29.526Z,957.49
2017-09-09T06:10:29.575Z,957.49
2017-09-09T06:11:29.689Z,957.52
2017-09-09T06:12:29.673Z,957.53
2017-09-09T06:13:29.722Z,957.53
2017-09-09T06:14:29.776Z,957.52
2017-09-09T06:15:29.821Z,957.52
2017-09-09T06:16:29.938Z,957.54
2017-09-09T06:17:29.919Z,957.53
2017-09-09T06:18:29.971Z,957.52
2017-09-09T06:19:30.216Z,957.51
2017-09-09T06:20:30.066Z,957.52
2017-09-09T06:21:30.179Z,957.55
2017-09-09T06:22:30.228Z,957.56
2017-09-09T06:23:30.216Z,957.51
2017-09-09T06:24:30.266Z,957.49
2017-09-09T06:25:30.350Z,957.44
2017-09-09T06:26:30.369Z,957.43
2017-09-09T06:27:30.476Z,957.39
2017-09-09T06:28:30.464Z,957.39
2017-09-09T06:29:30.512Z,957.42
2017-09-09T06:30:30.560Z,957.44
2017-09-09T06:31:30.612Z,957.47
2017-09-09T06:32:30.722Z,957.54
2017-09-09T06:33:30.707Z,957.54
2017-09-09T06:34:30.758Z,957.58
2017-09-09T06:35:30.809Z,957.55
2017-09-09T06:36:30.861Z,957.62
2017-09-09T06:37:30.969Z,957.67
2017-09-09T06:38:30.959Z,957.70
2017-09-09T06:39:31.009Z,957.72
2017-09-09T06:40:31.058Z,957.72
2017-09-09T06:41:31.111Z,957.70
2017-09-09T06:42:31.221Z,957.72
2017-09-09T06:43:31.206Z,957.70
2017-09-09T06:44:31.258Z,957.73
2017-09-09T06:45:31.304Z,957.77
2017-09-09T06:46:31.354Z,957.78
2017-09-09T06:47:31.469Z,957.76
2017-09-09T06:48:31.454Z,957.72
2017-09-09T06:49:31.503Z,957.74
2017-09-09T06:50:31.556Z,957.77
2017-09-09T06:51:31.604Z,957.78
2017-09-09T06:52:31.720Z,957.81
2017-09-09T06:53:31.703Z,957.84
2017-09-09T06:54:31.754Z,957.80
2017-09-09T06:55:31.809Z,957.81
2017-09-09T06:56:31.855Z,957.83
2017-09-09T06:57:31.971Z,957.82
2017-09-09T06:58:31.953Z,957.79
2017-09-09T06:59:32.005Z,957.84
2017-09-09T07:00:32.056Z,957.83
2017-09-09T07:01:32.103Z,957.82
2017-09-09T07:02:32.235Z,957.81
2017-09-09T07:03:32.204Z,957.84
2017-09-09T07:04:32.259Z,957.84
2017-09-09T07:05:32.304Z,957.84
2017-09-09T07:06:32.351Z,957.82
2017-09-09T07:07:32.486Z,957.85
2017-09-09T07:08:32.452Z,957.86
2017-09-09T07:09:32.501Z,957.90
2017-09-09T07:10:32.556Z,957.92
2017-09-09T07:11:32.602Z,957.95
2017-09-09T07:12:32.721Z,957.97
2017-09-09T07:13:32.764Z,957.96
2017-09-09T07:14:32.752Z,957.96
2017-09-09T07:15:32.799Z,957.92
2017-09-09T07:16:32.850Z,957.90
2017-09-09T07:17:32.900Z,957.94
2017-09-09T07:18:33.015Z,958.00
2017-09-09T07:19:33.000Z,958.02
2017-09-09T07:20:33.053Z,958.06
2017-09-09T07:21:33.099Z,958.11
2017-09-09T07:22:33.147Z,958.12
2017-09-09T07:23:33.282Z,958.14
2017-09-09T07:24:33.251Z,958.11
2017-09-09T07:25:33.297Z,958.10
2017-09-09T07:26:33.349Z,958.08
2017-09-09T07:27:33.398Z,958.03
2017-09-09T07:28:33.540Z,958.03
2017-09-09T07:29:33.497Z,957.99
2017-09-09T07:30:33.548Z,958.00
2017-09-09T07:31:33.600Z,957.98
2017-09-09T07:32:33.647Z,957.95
2017-09-09T07:33:33.780Z,957.92
2017-09-09T07:34:33.746Z,957.92
2017-09-09T07:35:33.797Z,957.90
2017-09-09T07:36:33.845Z,957.91
2017-09-09T07:37:33.906Z,957.91
2017-09-09T07:38:34.010Z,957.97
2017-09-09T07:39:34.059Z,957.98
2017-09-09T07:40:35.007Z,958.01
2017-09-09T07:41:34.095Z,957.99
2017-09-09T07:42:34.140Z,958.03
2017-09-09T07:43:34.194Z,957.99
2017-09-09T07:44:34.307Z,958.02
2017-09-09T07:45:34.292Z,957.94
2017-09-09T07:46:34.342Z,957.98
2017-09-09T07:47:34.393Z,958.00
2017-09-09T07:48:34.445Z,958.04
2017-09-09T07:49:34.575Z,958.05
2017-09-09T07:50:34.541Z,958.03
2017-09-09T07:51:34.590Z,958.02
2017-09-09T07:52:34.647Z,958.02
2017-09-09T07:53:34.691Z,957.99
2017-09-09T07:54:34.811Z,958.00
2017-09-09T07:55:34.858Z,958.02
2017-09-09T07:56:34.840Z,958.04
2017-09-09T07:57:34.889Z,958.09
2017-09-09T07:58:34.938Z,958.04
2017-09-09T07:59:34.988Z,958.01
2017-09-09T08:00:35.108Z,958.05
2017-09-09T08:01:35.088Z,958.06
2017-09-09T08:02:35.138Z,958.06
2017-09-09T08:03:35.186Z,958.06
2017-09-09T08:04:35.241Z,958.06
2017-09-09T08:05:35.351Z,958.09
2017-09-09T08:06:35.336Z,958.08
2017-09-09T08:07:35.398Z,958.04
2017-09-09T08:08:35.437Z,958.04
2017-09-09T08:09:35.486Z,958.06
2017-09-09T08:10:35.599Z,958.02
2017-09-09T08:11:35.589Z,958.04
2017-09-09T08:12:35.637Z,958.06
2017-09-09T08:13:35.685Z,958.03
2017-09-09T08:14:35.735Z,958.07
2017-09-09T08:15:35.873Z,958.11
2017-09-09T08:16:35.841Z,958.06
2017-09-09T08:17:35.885Z,958.07
2017-09-09T08:18:35.933Z,958.11
2017-09-09T08:19:35.988Z,958.11
2017-09-09T08:20:36.100Z,958.09
2017-09-09T08:21:36.147Z,958.14
2017-09-09T08:22:36.135Z,958.16
2017-09-09T08:23:36.184Z,958.17
2017-09-09T08:24:36.237Z,958.24
2017-09-09T08:25:36.285Z,958.21
2017-09-09T08:26:36.398Z,958.25
2017-09-09T08:27:36.384Z,958.25
2017-09-09T08:28:36.435Z,958.22
2017-09-09T08:29:36.484Z,958.25
2017-09-09T08:30:36.536Z,958.32
2017-09-09T08:31:36.651Z,958.30
2017-09-09T08:32:36.636Z,958.37
2017-09-09T08:33:36.686Z,958.38
2017-09-09T08:34:36.735Z,958.33
2017-09-09T08:35:36.784Z,958.31
2017-09-09T08:36:36.917Z,958.36
2017-09-09T08:37:36.885Z,958.35
2017-09-09T08:38:36.934Z,958.31
2017-09-09T08:39:36.986Z,958.37
2017-09-09T08:40:37.034Z,958.39
2017-09-09T08:41:37.165Z,958.45
2017-09-09T08:42:37.135Z,958.45
2017-09-09T08:43:37.184Z,958.50
2017-09-09T08:44:37.237Z,958.49
2017-09-09T08:45:37.285Z,958.50
2017-09-09T08:46:37.400Z,958.54
2017-09-09T08:47:37.450Z,958.53
2017-09-09T08:48:37.438Z,958.52
2017-09-09T08:49:37.487Z,958.57
2017-09-09T08:50:37.539Z,958.60
2017-09-09T08:51:37.591Z,958.61
2017-09-09T08:52:37.704Z,958.66
2017-09-09T08:53:37.686Z,958.66
2017-09-09T08:54:37.738Z,958.63
2017-09-09T08:55:37.792Z,958.69
2017-09-09T08:56:37.838Z,958.67
2017-09-09T08:57:37.953Z,958.69
2017-09-09T08:58:37.937Z,958.68
2017-09-09T08:59:37.991Z,958.67
2017-09-09T09:00:38.041Z,958.71
2017-09-09T09:01:38.089Z,958.71
2017-09-09T09:02:38.204Z,958.72
2017-09-09T09:03:38.191Z,958.71
2017-09-09T09:04:38.239Z,958.72
2017-09-09T09:05:38.291Z,958.71
2017-09-09T09:06:38.340Z,958.73
2017-09-09T09:07:38.484Z,958.74
2017-09-09T09:08:38.446Z,958.77
2017-09-09T09:09:38.493Z,958.72
2017-09-09T09:10:38.542Z,958.74
2017-09-09T09:11:38.595Z,958.71
2017-09-09T09:12:38.727Z,958.70
2017-09-09T09:13:38.697Z,958.69
2017-09-09T09:14:38.744Z,958.67
2017-09-09T09:15:38.795Z,958.67
2017-09-09T09:16:38.849Z,958.69
2017-09-09T09:17:38.962Z,958.72
2017-09-09T09:18:39.011Z,958.74
2017-09-09T09:19:39.003Z,958.71
2017-09-09T09:20:39.049Z,958.70
2017-09-09T09:21:39.098Z,958.69
2017-09-09T09:22:39.147Z,958.66
2017-09-09T09:23:39.279Z,958.68
2017-09-09T09:24:39.247Z,958.73
2017-09-09T09:25:39.299Z,958.76
2017-09-09T09:26:39.348Z,958.74
2017-09-09T09:27:39.400Z,958.74
2017-09-09T09:28:39.549Z,958.75
2017-09-09T09:29:39.501Z,958.74
2017-09-09T09:30:39.552Z,958.75
2017-09-09T09:31:39.602Z,958.78
2017-09-09T09:32:39.653Z,958.79
2017-09-09T09:33:40.091Z,958.81
2017-09-09T09:34:39.818Z,958.84
2017-09-09T09:35:39.803Z,958.84
2017-09-09T09:36:39.855Z,958.86
2017-09-09T09:37:39.910Z,958.85
2017-09-09T09:38:39.953Z,958.79
2017-09-09T09:39:40.068Z,958.80
2017-09-09T09:40:40.057Z,958.79
2017-09-09T09:41:40.106Z,958.81
2017-09-09T09:42:40.162Z,958.79
2017-09-09T09:43:40.207Z,958.79
2017-09-09T09:44:40.322Z,958.78
2017-09-09T09:45:40.307Z,958.82
2017-09-09T09:46:40.357Z,958.82
2017-09-09T09:47:40.408Z,958.86
2017-09-09T09:48:40.461Z,958.85
2017-09-09T09:49:40.576Z,958.83
2017-09-09T09:50:40.561Z,958.83
2017-09-09T09:51:40.610Z,958.86
2017-09-09T09:52:40.662Z,958.90
2017-09-09T09:53:40.711Z,958.93
2017-09-09T09:54:40.827Z,958.91
2017-09-09T09:55:40.818Z,958.87
2017-09-09T09:56:40.864Z,958.88
2017-09-09T09:57:40.913Z,958.90
2017-09-09T09:58:40.970Z,958.89
2017-09-09T09:59:41.078Z,958.82
2017-09-09T10:00:41.068Z,958.75
2017-09-09T10:01:41.115Z,958.72
2017-09-09T10:02:41.164Z,958.68
2017-09-09T10:03:41.213Z,958.68
2017-09-09T10:04:41.349Z,958.73
2017-09-09T10:05:41.317Z,958.74
2017-09-09T10:06:41.365Z,958.75
2017-09-09T10:07:41.417Z,958.74
2017-09-09T10:08:41.468Z,958.77
2017-09-09T10:09:41.600Z,958.72
2017-09-09T10:10:41.568Z,958.78
2017-09-09T10:11:41.619Z,958.78
2017-09-09T10:12:41.668Z,958.81
2017-09-09T10:13:41.720Z,958.84
2017-09-09T10:14:41.854Z,958.84
2017-09-09T10:15:41.833Z,958.86
2017-09-09T10:16:41.871Z,958.85
2017-09-09T10:17:42.192Z,958.87
2017-09-09T10:18:41.973Z,958.84
2017-09-09T10:19:42.086Z,958.84
2017-09-09T10:20:42.140Z,958.89
2017-09-09T10:21:42.120Z,958.90
2017-09-09T10:22:42.172Z,958.91
2017-09-09T10:23:42.221Z,958.90
2017-09-09T10:24:42.274Z,958.94
2017-09-09T10:25:42.388Z,958.89
2017-09-09T10:26:42.372Z,958.87
2017-09-09T10:27:42.420Z,958.89
2017-09-09T10:28:42.472Z,958.87
2017-09-09T10:29:42.522Z,958.89
2017-09-09T10:30:42.655Z,958.91
2017-09-09T10:31:42.627Z,958.88
2017-09-09T10:32:42.675Z,958.91
2017-09-09T10:33:42.723Z,958.87
2017-09-09T10:34:42.775Z,958.87
2017-09-09T10:35:42.885Z,958.90
2017-09-09T10:36:42.942Z,958.85
2017-09-09T10:37:42.925Z,958.86
2017-09-09T10:38:42.976Z,958.89
2017-09-09T10:39:43.026Z,958.87
2017-09-09T10:40:43.075Z,958.94
2017-09-09T10:41:43.190Z,958.89
2017-09-09T10:42:43.176Z,958.86
2017-09-09T10:43:43.224Z,958.84
2017-09-09T10:44:43.274Z,958.85
2017-09-09T10:45:43.325Z,958.82
2017-09-09T10:46:43.444Z,958.84
2017-09-09T10:47:43.426Z,958.83
2017-09-09T10:48:43.478Z,958.81
2017-09-09T10:49:43.527Z,958.84
2017-09-09T10:50:43.576Z,958.76
2017-09-09T10:51:43.698Z,958.75
2017-09-09T10:52:43.674Z,958.75
2017-09-09T10:53:43.726Z,958.73
2017-09-09T10:54:43.778Z,958.73
2017-09-09T10:55:43.830Z,958.66
2017-09-09T10:56:43.961Z,958.65
2017-09-09T10:57:43.933Z,958.70
2017-09-09T10:58:43.980Z,958.70
2017-09-09T10:59:44.028Z,958.70
2017-09-09T11:00:44.078Z,958.67
2017-09-09T11:01:44.194Z,958.68
2017-09-09T11:02:44.242Z,958.65
2017-09-09T11:03:44.231Z,958.67
2017-09-09T11:04:44.280Z,958.64
2017-09-09T11:05:44.329Z,958.56
2017-09-09T11:06:44.381Z,958.62
2017-09-09T11:07:44.493Z,958.64
2017-09-09T11:08:44.482Z,958.59
2017-09-09T11:09:44.531Z,958.59
2017-09-09T11:10:44.579Z,958.57
2017-09-09T11:11:44.631Z,958.58
2017-09-09T11:12:44.744Z,958.61
2017-09-09T11:13:44.729Z,958.60
2017-09-09T11:14:44.781Z,958.62
2017-09-09T11:15:44.834Z,958.59
2017-09-09T11:16:44.884Z,958.53
2017-09-09T11:17:45.013Z,958.54
2017-09-09T11:18:44.981Z,958.52
2017-09-09T11:19:45.032Z,958.57
2017-09-09T11:20:45.086Z,958.57
2017-09-09T11:21:45.132Z,958.57
2017-09-09T11:22:45.269Z,958.53
2017-09-09T11:23:45.233Z,958.47
2017-09-09T11:24:45.282Z,958.48
2017-09-09T11:25:45.332Z,958.48
2017-09-09T11:26:45.384Z,958.47
2017-09-09T11:27:45.498Z,958.43
2017-09-09T11:28:45.482Z,958.39
2017-09-09T11:29:45.534Z,958.36
2017-09-09T11:30:45.583Z,958.38
2017-09-09T11:31:45.634Z,958.40
2017-09-09T11:32:45.750Z,958.41
2017-09-09T11:33:46.114Z,958.45
2017-09-09T11:34:45.781Z,958.44
2017-09-09T11:35:45.841Z,958.44
2017-09-09T11:36:45.888Z,958.40
2017-09-09T11:37:45.937Z,958.42
2017-09-09T11:38:46.049Z,958.39
2017-09-09T11:39:46.035Z,958.42
2017-09-09T11:40:46.087Z,958.40
2017-09-09T11:41:46.139Z,958.36
2017-09-09T11:42:46.191Z,958.37
2017-09-09T11:43:46.312Z,958.32
2017-09-09T11:44:46.286Z,958.31
2017-09-09T11:45:46.338Z,958.35
2017-09-09T11:46:46.386Z,958.36
2017-09-09T11:47:46.445Z,958.40
2017-09-09T11:48:46.574Z,958.41
2017-09-09T11:49:46.539Z,958.46
2017-09-09T11:50:46.594Z,958.52
2017-09-09T11:51:46.641Z,958.51
2017-09-09T11:52:46.696Z,958.54
2017-09-09T11:53:46.820Z,958.57
2017-09-09T11:54:46.788Z,958.57
2017-09-09T11:55:46.839Z,958.49
2017-09-09T11:56:46.889Z,958.51
2017-09-09T11:57:46.937Z,958.51
2017-09-09T11:58:47.074Z,958.53
2017-09-09T11:59:47.039Z,958.55
2017-09-09T12:00:47.090Z,958.57
2017-09-09T12:01:47.139Z,958.59
2017-09-09T12:02:47.191Z,958.61
2017-09-09T12:03:47.306Z,958.60
2017-09-09T12:04:47.355Z,958.60
2017-09-09T12:05:47.339Z,958.63
2017-09-09T12:06:47.392Z,958.61
2017-09-09T12:07:47.450Z,958.62
2017-09-09T12:08:47.491Z,958.61
2017-09-09T12:09:47.606Z,958.60
2017-09-09T12:10:47.594Z,958.57
2017-09-09T12:11:47.641Z,958.54
2017-09-09T12:12:47.692Z,958.53
2017-09-09T12:13:47.741Z,958.54
2017-09-09T12:14:47.860Z,958.48
2017-09-09T12:15:47.842Z,958.45
2017-09-09T12:16:47.891Z,958.46
2017-09-09T12:17:47.944Z,958.45
2017-09-09T12:18:47.990Z,958.45
2017-09-09T12:19:48.110Z,958.41
2017-09-09T12:20:48.093Z,958.40
2017-09-09T12:21:48.149Z,958.36
2017-09-09T12:22:48.194Z,958.35
2017-09-09T12:23:48.243Z,958.33
2017-09-09T12:24:48.359Z,958.30
2017-09-09T12:25:48.347Z,958.27
2017-09-09T12:26:48.394Z,958.26
2017-09-09T12:27:48.444Z,958.28
2017-09-09T12:28:48.494Z,958.23